Time,TemperatureF,DewpointF,PressureIn,WindDirection,WindDirectionDegrees,WindSpeedMPH,WindSpeedGustMPH,Humidity,HourlyPrecipIn,Conditions,Clouds,dailyrainin,SoftwareType,DateUTC
2013-01-05 00:11:00,22.7,19.0,30.32,SE,141,1.0,3.0,85,0.00,,,0.00,weatherlink.com 1.10,2013-01-05 05:11:00,
2013-01-05 00:25:00,21.9,18.0,30.31,SE,141,0.0,2.0,86,0.00,,,0.00,weatherlink.com 1.10,2013-01-05 05:25:00,
2013-01-05 00:41:00,21.2,18.0,30.32,SE,141,0.0,3.0,87,0.00,,,0.00,weatherlink.com 1.10,2013-01-05 05:41:00,
2013-01-05 00:56:00,21.1,18.0,30.31,SE,141,0.0,2.0,87,0.00,,,0.00,weatherlink.com 1.10,2013-01-05 05:56:00,
2013-01-05 01:11:00,21.4,18.0,30.31,SE,141,0.0,2.0,88,0.00,,,0.00,weatherlink.com 1.10,2013-01-05 06:11:00,
2013-01-05 01:26:00,21.8,19.0,30.31,SE,141,0.0,2.0,88,0.00,,,0.00,weatherlink.com 1.10,2013-01-05 06:26:00,
2013-01-05 01:41:00,22.0,19.0,30.30,SE,141,2.0,2.0,87,0.00,,,0.00,weatherlink.com 1.10,2013-01-05 06:41:00,
2013-01-05 01:56:00,21.5,18.0,30.30,SE,141,1.0,3.0,87,0.00,,,0.00,weatherlink.com 1.10,2013-01-05 06:56:00,
2013-01-05 02:11:00,21.3,18.0,30.31,SE,136,2.0,4.0,87,0.00,,,0.00,weatherlink.com 1.10,2013-01-05 07:11:00,
2013-01-05 02:26:00,21.6,19.0,30.32,SE,138,3.0,4.0,88,0.00,,,0.00,weatherlink.com 1.10,2013-01-05 07:26:00,
2013-01-05 02:41:00,21.5,19.0,30.32,SE,139,3.0,4.0,88,0.00,,,0.00,weatherlink.com 1.10,2013-01-05 07:41:00,
2013-01-05 02:56:00,21.6,19.0,30.32,SE,139,3.0,3.0,88,0.00,,,0.00,weatherlink.com 1.10,2013-01-05 07:56:00,
2013-01-05 03:11:00,21.6,19.0,30.33,SE,136,2.0,4.0,88,0.00,,,0.00,weatherlink.com 1.10,2013-01-05 08:11:00,
2013-01-05 03:26:00,22.0,19.0,30.33,SE,140,0.0,3.0,89,0.00,,,0.00,weatherlink.com 1.10,2013-01-05 08:26:00,
2013-01-05 03:41:00,22.4,19.0,30.33,SE,138,1.0,3.0,88,0.00,,,0.00,weatherlink.com 1.10,2013-01-05 08:41:00,
2013-01-05 03:56:00,22.5,20.0,30.32,SE,138,0.0,2.0,88,0.00,,,0.00,weatherlink.com 1.10,2013-01-05 08:56:00,
2013-01-05 04:11:00,22.7,20.0,30.32,SSE,154,0.0,1.0,88,0.00,,,0.00,weatherlink.com 1.10,2013-01-05 09:11:00,
2013-01-05 04:26:00,22.1,19.0,30.32,SE,143,0.0,2.0,88,0.00,,,0.00,weatherlink.com 1.10,2013-01-05 09:26:00,
2013-01-05 04:41:00,22.0,19.0,30.31,SE,140,1.0,3.0,89,0.00,,,0.00,weatherlink.com 1.10,2013-01-05 09:41:00,
2013-01-05 04:56:00,21.8,19.0,30.31,SE,140,0.0,1.0,89,0.00,,,0.00,weatherlink.com 1.10,2013-01-05 09:56:00,
2013-01-05 05:11:00,21.4,19.0,30.31,SE,139,0.0,2.0,89,0.00,,,0.00,weatherlink.com 1.10,2013-01-05 10:11:00,
2013-01-05 05:26:00,21.1,18.0,30.32,ESE,111,0.0,3.0,89,0.00,,,0.00,weatherlink.com 1.10,2013-01-05 10:26:00,
2013-01-05 05:41:00,20.8,18.0,30.32,ESE,111,0.0,2.0,90,0.00,,,0.00,weatherlink.com 1.10,2013-01-05 10:41:00,
2013-01-05 05:56:00,20.7,18.0,30.32,SE,126,1.0,2.0,90,0.00,,,0.00,weatherlink.com 1.10,2013-01-05 10:56:00,
2013-01-05 06:11:00,20.9,19.0,30.31,ESE,115,4.0,7.0,90,0.00,,,0.00,weatherlink.com 1.10,2013-01-05 11:11:00,
2013-01-05 06:26:00,21.1,19.0,30.30,ESE,111,1.0,8.0,90,0.00,,,0.00,weatherlink.com 1.10,2013-01-05 11:26:00,
2013-01-05 06:41:00,20.8,18.0,30.30,ESE,102,4.0,6.0,90,0.00,,,0.00,weatherlink.com 1.10,2013-01-05 11:41:00,
2013-01-05 06:56:00,20.9,18.0,30.30,ESE,102,4.0,5.0,89,0.00,,,0.00,weatherlink.com 1.10,2013-01-05 11:56:00,
2013-01-05 07:12:00,21.1,19.0,30.30,ESE,111,4.0,8.0,90,0.00,,,0.00,weatherlink.com 1.10,2013-01-05 12:12:00,
2013-01-05 07:27:00,21.2,19.0,30.30,ESE,107,7.0,8.0,89,0.00,,,0.00,weatherlink.com 1.10,2013-01-05 12:27:00,
2013-01-05 07:42:00,21.3,19.0,30.30,ESE,107,8.0,9.0,89,0.00,,,0.00,weatherlink.com 1.10,2013-01-05 12:42:00,
2013-01-05 07:57:00,21.3,19.0,30.30,ESE,112,7.0,9.0,89,0.00,,,0.00,weatherlink.com 1.10,2013-01-05 12:57:00,
2013-01-05 08:12:00,21.4,19.0,30.30,ESE,123,3.0,9.0,89,0.00,,,0.00,weatherlink.com 1.10,2013-01-05 13:12:00,
2013-01-05 08:27:00,21.4,19.0,30.31,SE,135,3.0,9.0,89,0.00,,,0.00,weatherlink.com 1.10,2013-01-05 13:27:00,
2013-01-05 08:42:00,22.1,19.0,30.31,SE,124,2.0,9.0,89,0.00,,,0.00,weatherlink.com 1.10,2013-01-05 13:42:00,
2013-01-05 08:57:00,22.7,20.0,30.30,ESE,109,4.0,7.0,88,0.00,,,0.00,weatherlink.com 1.10,2013-01-05 13:57:00,
2013-01-05 09:12:00,23.5,20.0,30.29,East,101,3.0,5.0,87,0.00,,,0.00,weatherlink.com 1.10,2013-01-05 14:12:00,
2013-01-05 09:27:00,24.1,21.0,30.30,SE,124,4.0,9.0,87,0.00,,,0.00,weatherlink.com 1.10,2013-01-05 14:27:00,
2013-01-05 09:42:00,25.0,21.0,30.31,SE,128,2.0,9.0,86,0.00,,,0.00,weatherlink.com 1.10,2013-01-05 14:42:00,
2013-01-05 09:57:00,26.3,22.0,30.30,ESE,115,8.0,11.0,84,0.00,,,0.00,weatherlink.com 1.10,2013-01-05 14:57:00,
2013-01-05 10:12:00,27.6,23.0,30.29,ESE,117,5.0,9.0,82,0.00,,,0.00,weatherlink.com 1.10,2013-01-05 15:12:00,
2013-01-05 10:27:00,28.6,24.0,30.29,ESE,107,5.0,8.0,81,0.00,,,0.00,weatherlink.com 1.10,2013-01-05 15:27:00,
2013-01-05 10:42:00,29.2,23.0,30.29,ESE,114,10.0,12.0,79,0.00,,,0.00,weatherlink.com 1.10,2013-01-05 15:42:00,
2013-01-05 10:57:00,29.7,24.0,30.29,ESE,123,8.0,11.0,79,0.00,,,0.00,weatherlink.com 1.10,2013-01-05 15:57:00,
2013-01-05 11:12:00,30.4,25.0,30.29,ESE,111,8.0,10.0,79,0.00,,,0.00,weatherlink.com 1.10,2013-01-05 16:12:00,
2013-01-05 11:27:00,31.4,25.0,30.28,SE,143,5.0,9.0,77,0.00,,,0.00,weatherlink.com 1.10,2013-01-05 16:27:00,
2013-01-05 11:42:00,30.9,25.0,30.27,ESE,109,10.0,12.0,78,0.00,,,0.00,weatherlink.com 1.10,2013-01-05 16:42:00,
2013-01-05 11:57:00,31.1,26.0,30.26,SE,136,3.0,13.0,80,0.00,,,0.00,weatherlink.com 1.10,2013-01-05 16:57:00,
2013-01-05 12:12:00,32.0,26.0,30.26,ESE,123,4.0,10.0,79,0.00,,,0.00,weatherlink.com 1.10,2013-01-05 17:12:00,
2013-01-05 12:27:00,31.9,26.0,30.25,SE,129,1.0,8.0,79,0.00,,,0.00,weatherlink.com 1.10,2013-01-05 17:27:00,
2013-01-05 12:42:00,31.8,26.0,30.24,ESE,104,5.0,13.0,80,0.00,,,0.00,weatherlink.com 1.10,2013-01-05 17:42:00,
2013-01-05 12:57:00,32.5,27.0,30.23,East,98,9.0,11.0,81,0.00,,,0.00,weatherlink.com 1.10,2013-01-05 17:57:00,
2013-01-05 13:12:00,33.2,27.0,30.22,SE,136,3.0,13.0,79,0.00,,,0.00,weatherlink.com 1.10,2013-01-05 18:12:00,
2013-01-05 13:27:00,34.3,28.0,30.20,SE,144,4.0,8.0,78,0.00,,,0.00,weatherlink.com 1.10,2013-01-05 18:27:00,
2013-01-05 13:42:00,34.6,28.0,30.20,East,96,5.0,14.0,77,0.01,,,0.01,weatherlink.com 1.10,2013-01-05 18:42:00,
2013-01-05 13:58:00,34.2,28.0,30.20,SE,128,3.0,14.0,78,0.01,,,0.01,weatherlink.com 1.10,2013-01-05 18:58:00,
2013-01-05 14:13:00,34.6,28.0,30.18,SE,128,4.0,9.0,78,0.01,,,0.01,weatherlink.com 1.10,2013-01-05 19:13:00,
2013-01-05 14:28:00,35.2,29.0,30.17,SE,134,4.0,7.0,78,0.01,,,0.01,weatherlink.com 1.10,2013-01-05 19:28:00,
2013-01-05 14:43:00,35.5,29.0,30.17,ESE,117,3.0,7.0,78,0.00,,,0.01,weatherlink.com 1.10,2013-01-05 19:43:00,
2013-01-05 14:58:00,35.1,29.0,30.17,SE,143,5.0,6.0,78,0.00,,,0.01,weatherlink.com 1.10,2013-01-05 19:58:00,
2013-01-05 15:13:00,35.0,29.0,30.17,ESE,120,3.0,8.0,79,0.00,,,0.01,weatherlink.com 1.10,2013-01-05 20:13:00,
2013-01-05 15:28:00,34.9,29.0,30.17,SE,142,4.0,7.0,79,0.00,,,0.01,weatherlink.com 1.10,2013-01-05 20:28:00,
2013-01-05 15:43:00,35.0,29.0,30.18,SE,141,4.0,6.0,79,0.00,,,0.01,weatherlink.com 1.10,2013-01-05 20:43:00,
2013-01-05 15:58:00,34.8,29.0,30.18,SE,143,3.0,6.0,80,0.00,,,0.01,weatherlink.com 1.10,2013-01-05 20:58:00,
2013-01-05 16:13:00,34.8,29.0,30.18,South,182,5.0,6.0,80,0.00,,,0.01,weatherlink.com 1.10,2013-01-05 21:13:00,
2013-01-05 16:28:00,33.9,30.0,30.19,SE,144,3.0,8.0,86,0.00,,,0.01,weatherlink.com 1.10,2013-01-05 21:28:00,
2013-01-05 16:43:00,33.3,30.0,30.18,SE,136,1.0,6.0,88,0.00,,,0.01,weatherlink.com 1.10,2013-01-05 21:43:00,
2013-01-05 16:58:00,33.3,30.0,30.18,SE,142,3.0,6.0,88,0.00,,,0.01,weatherlink.com 1.10,2013-01-05 21:58:00,
2013-01-05 17:13:00,33.3,30.0,30.17,ESE,113,1.0,5.0,88,0.00,,,0.01,weatherlink.com 1.10,2013-01-05 22:13:00,
2013-01-05 17:28:00,33.2,30.0,30.17,SE,138,3.0,4.0,88,0.00,,,0.01,weatherlink.com 1.10,2013-01-05 22:28:00,
2013-01-05 17:43:00,33.0,30.0,30.17,ESE,109,4.0,9.0,88,0.00,,,0.01,weatherlink.com 1.10,2013-01-05 22:43:00,
2013-01-05 17:58:00,33.0,30.0,30.16,SE,129,3.0,10.0,88,0.00,,,0.01,weatherlink.com 1.10,2013-01-05 22:58:00,
2013-01-05 18:13:00,33.1,30.0,30.16,SE,124,3.0,12.0,87,0.00,,,0.01,weatherlink.com 1.10,2013-01-05 23:13:00,
2013-01-05 18:28:00,33.0,30.0,30.16,SE,126,1.0,10.0,87,0.00,,,0.01,weatherlink.com 1.10,2013-01-05 23:28:00,
2013-01-05 18:43:00,32.9,30.0,30.15,ESE,110,9.0,10.0,87,0.00,,,0.01,weatherlink.com 1.10,2013-01-05 23:43:00,
2013-01-05 18:58:00,32.8,30.0,30.15,SE,127,1.0,11.0,88,0.00,,,0.01,weatherlink.com 1.10,2013-01-05 23:58:00,
2013-01-05 19:13:00,32.5,29.0,30.15,ESE,117,3.0,8.0,88,0.00,,,0.01,weatherlink.com 1.10,2013-01-06 00:13:00,
2013-01-05 19:28:00,32.4,30.0,30.15,ESE,109,11.0,11.0,89,0.00,,,0.01,weatherlink.com 1.10,2013-01-06 00:28:00,
2013-01-05 19:43:00,32.3,30.0,30.15,ESE,113,7.0,17.0,90,0.00,,,0.01,weatherlink.com 1.10,2013-01-06 00:43:00,
2013-01-05 19:58:00,32.3,30.0,30.15,SE,130,6.0,14.0,90,0.00,,,0.01,weatherlink.com 1.10,2013-01-06 00:58:00,
2013-01-05 20:13:00,32.0,30.0,30.15,ESE,109,7.0,14.0,91,0.00,,,0.01,weatherlink.com 1.10,2013-01-06 01:13:00,
2013-01-05 20:28:00,32.2,30.0,30.14,SE,134,5.0,14.0,90,0.00,,,0.01,weatherlink.com 1.10,2013-01-06 01:28:00,
2013-01-05 20:43:00,32.4,30.0,30.14,SE,137,6.0,15.0,89,0.00,,,0.01,weatherlink.com 1.10,2013-01-06 01:43:00,
2013-01-05 20:58:00,32.7,30.0,30.13,ESE,105,13.0,15.0,89,0.00,,,0.01,weatherlink.com 1.10,2013-01-06 01:58:00,
2013-01-05 21:13:00,32.7,30.0,30.14,SE,124,4.0,9.0,89,0.00,,,0.01,weatherlink.com 1.10,2013-01-06 02:13:00,
2013-01-05 21:28:00,32.9,30.0,30.13,SE,135,5.0,9.0,89,0.00,,,0.01,weatherlink.com 1.10,2013-01-06 02:28:00,
2013-01-05 21:43:00,33.2,31.0,30.13,ESE,109,5.0,12.0,90,0.00,,,0.01,weatherlink.com 1.10,2013-01-06 02:43:00,
2013-01-05 21:58:00,33.4,31.0,30.12,ESE,107,11.0,15.0,89,0.00,,,0.01,weatherlink.com 1.10,2013-01-06 02:58:00,
2013-01-05 22:13:00,33.2,30.0,30.12,SE,135,4.0,13.0,89,0.00,,,0.01,weatherlink.com 1.10,2013-01-06 03:13:00,
2013-01-05 22:28:00,33.3,31.0,30.11,SE,140,4.0,18.0,90,0.00,,,0.01,weatherlink.com 1.10,2013-01-06 03:28:00,
2013-01-05 22:43:00,33.5,31.0,30.11,ESE,119,5.0,14.0,89,0.00,,,0.01,weatherlink.com 1.10,2013-01-06 03:43:00,
2013-01-05 22:58:00,33.5,31.0,30.11,SE,139,5.0,16.0,89,0.00,,,0.01,weatherlink.com 1.10,2013-01-06 03:58:00,
2013-01-05 23:13:00,33.5,31.0,30.11,ESE,112,4.0,15.0,89,0.00,,,0.01,weatherlink.com 1.10,2013-01-06 04:13:00,
2013-01-05 23:28:00,33.6,31.0,30.10,ESE,121,5.0,10.0,89,0.00,,,0.01,weatherlink.com 1.10,2013-01-06 04:28:00,
2013-01-05 23:43:00,33.7,31.0,30.09,SE,134,4.0,13.0,88,0.00,,,0.01,weatherlink.com 1.10,2013-01-06 04:43:00,
2013-01-05 23:58:00,33.9,31.0,30.09,SE,138,5.0,11.0,87,0.00,,,0.01,weatherlink.com 1.10,2013-01-06 04:58:00,